Time;durP1;ratioP1;P1;durP2;ratioP2;P2;SDS_P1;SDS_P2;PMS_P1;PMS_P2;Temp;Humidity;BMP_temperature;BMP_pressure;BME280_temperature;BME280_humidity;BME280_pressure;Samples;Min_cycle;Max_cycle;Signal;HPM_P1;HPM_P2
2023/08/03 00:01:51;;;;;;;1.53;1.30;;;18.30;99.90;;;;;;5011689;28;20198;-62
2023/08/03 00:04:17;;;;;;;2.83;1.40;;;18.30;99.90;;;;;;5020478;28;20664;-63
2023/08/03 00:06:44;;;;;;;1.93;1.67;;;18.20;99.90;;;;;;5010756;28;20196;-62
2023/08/03 00:09:09;;;;;;;1.67;1.57;;;18.30;99.90;;;;;;5007574;28;20183;-63
2023/08/03 00:11:35;;;;;;;2.83;1.30;;;18.30;99.90;;;;;;5014791;28;20215;-61
2023/08/03 00:14:01;;;;;;;1.63;1.20;;;18.30;99.90;;;;;;5014234;28;20266;-61
2023/08/03 00:16:26;;;;;;;2.10;1.00;;;18.30;99.90;;;;;;5015710;28;20314;-62
2023/08/03 00:18:52;;;;;;;1.50;1.40;;;18.30;99.90;;;;;;5019855;28;20222;-62
2023/08/03 00:21:17;;;;;;;2.03;1.23;;;18.30;99.90;;;;;;5005863;28;20196;-61
2023/08/03 00:23:42;;;;;;;4.73;1.10;;;18.40;99.90;;;;;;5012275;28;20686;-62
2023/08/03 00:26:08;;;;;;;1.20;1.10;;;18.30;99.90;;;;;;5013936;28;20199;-61
2023/08/03 00:28:33;;;;;;;2.03;1.00;;;18.40;99.90;;;;;;5012564;28;20212;-61
2023/08/03 00:30:59;;;;;;;2.73;1.20;;;18.30;99.90;;;;;;5018391;28;20614;-61
2023/08/03 00:33:24;;;;;;;1.20;1.00;;;18.30;99.90;;;;;;5016317;28;20204;-64
2023/08/03 00:35:50;;;;;;;1.20;1.10;;;18.30;99.90;;;;;;5019561;28;20231;-62
2023/08/03 00:38:15;;;;;;;1.27;1.17;;;18.30;99.90;;;;;;5007434;28;20212;-62
2023/08/03 00:40:41;;;;;;;1.53;1.43;;;18.20;99.90;;;;;;5009237;28;20187;-66
2023/08/03 00:43:07;;;;;;;0.83;0.83;;;18.20;99.90;;;;;;5021851;28;20693;-64
2023/08/03 00:45:32;;;;;;;1.40;1.17;;;18.20;99.90;;;;;;5019013;28;20568;-61
2023/08/03 00:47:58;;;;;;;1.17;1.07;;;18.20;99.90;;;;;;5015528;28;20203;-66
2023/08/03 00:50:25;;;;;;;1.67;1.23;;;18.20;99.90;;;;;;5013693;28;20227;-59
2023/08/03 00:52:51;;;;;;;2.73;1.00;;;18.10;99.90;;;;;;5013601;28;20249;-63
2023/08/03 00:55:16;;;;;;;1.10;1.10;;;18.20;99.90;;;;;;5008542;28;20219;-64
2023/08/03 00:57:42;;;;;;;1.17;1.10;;;18.10;99.90;;;;;;5019997;28;20195;-62
2023/08/03 01:00:08;;;;;;;1.67;1.30;;;18.10;99.90;;;;;;5015131;28;20247;-62
2023/08/03 01:02:33;;;;;;;4.03;1.60;;;18.10;99.90;;;;;;5012280;28;20226;-62
2023/08/03 01:04:59;;;;;;;2.57;1.67;;;18.10;99.90;;;;;;5021456;28;20203;-62
2023/08/03 01:07:25;;;;;;;1.17;1.10;;;18.10;99.90;;;;;;5022948;28;20281;-62
2023/08/03 01:09:51;;;;;;;2.30;1.47;;;18.10;99.90;;;;;;5013527;28;20546;-63
2023/08/03 01:12:17;;;;;;;1.70;1.40;;;18.10;99.90;;;;;;5021617;28;20219;-63
2023/08/03 01:14:43;;;;;;;1.50;1.23;;;18.10;99.90;;;;;;5021038;28;20198;-63
2023/08/03 01:17:09;;;;;;;1.93;1.13;;;18.20;99.90;;;;;;5016034;28;20791;-62
2023/08/03 01:19:35;;;;;;;1.37;1.27;;;18.20;99.90;;;;;;5019169;28;20280;-63
2023/08/03 01:22:02;;;;;;;2.00;1.33;;;18.20;99.90;;;;;;5008122;28;20206;-62
2023/08/03 01:24:29;;;;;;;2.60;1.27;;;18.20;99.90;;;;;;5020134;28;20192;-62
2023/08/03 01:26:54;;;;;;;1.47;1.33;;;18.10;99.90;;;;;;5017527;28;20196;-61
2023/08/03 01:29:20;;;;;;;1.60;1.50;;;18.10;99.90;;;;;;5015251;28;20566;-65
2023/08/03 01:31:45;;;;;;;1.63;1.53;;;18.10;99.90;;;;;;5007560;28;20213;-60
2023/08/03 01:34:13;;;;;;;2.30;1.73;;;18.10;99.90;;;;;;5012386;28;20222;-65
2023/08/03 01:36:38;;;;;;;1.57;1.43;;;18.10;99.90;;;;;;5017920;28;20199;-63
2023/08/03 01:39:09;;;;;;;1.50;1.40;;;18.10;99.90;;;;;;5015306;28;20360;-63
2023/08/03 01:41:36;;;;;;;2.03;1.67;;;18.10;99.90;;;;;;5013858;28;20298;-61
2023/08/03 01:44:22;;;;;;;2.20;1.60;;;18.10;99.90;;;;;;5017486;28;20278;-61
2023/08/03 01:46:48;;;;;;;2.57;1.20;;;18.10;99.90;;;;;;5014359;28;20188;-61
2023/08/03 01:49:14;;;;;;;1.47;1.30;;;18.10;99.90;;;;;;5017934;28;20275;-61
2023/08/03 01:51:40;;;;;;;2.00;1.57;;;18.00;99.90;;;;;;5013259;28;20683;-61
2023/08/03 01:54:06;;;;;;;2.00;1.10;;;18.00;99.90;;;;;;5008005;28;20192;-62
2023/08/03 01:56:32;;;;;;;1.90;1.70;;;18.00;99.90;;;;;;5013032;28;20200;-63
2023/08/03 01:58:57;;;;;;;1.90;1.20;;;18.00;99.90;;;;;;5015801;28;20196;-63
2023/08/03 02:01:23;;;;;;;1.50;1.40;;;17.90;99.90;;;;;;5010588;28;20204;-63
2023/08/03 02:03:48;;;;;;;1.77;1.67;;;17.90;99.90;;;;;;5013108;28;20720;-65
2023/08/03 02:06:14;;;;;;;1.73;1.40;;;17.90;99.90;;;;;;5023205;28;20599;-63
2023/08/03 02:08:39;;;;;;;2.87;2.03;;;17.80;99.90;;;;;;5010180;28;20231;-66
2023/08/03 02:11:05;;;;;;;2.97;1.90;;;17.70;99.90;;;;;;5016344;28;20258;-65
2023/08/03 02:13:30;;;;;;;2.03;1.70;;;17.70;99.90;;;;;;5017686;28;20195;-63
2023/08/03 02:15:55;;;;;;;1.60;1.50;;;17.80;99.90;;;;;;5022165;28;20202;-64
2023/08/03 02:18:21;;;;;;;2.53;1.70;;;17.70;99.90;;;;;;5015258;28;20235;-64
2023/08/03 02:20:46;;;;;;;2.20;2.00;;;17.70;99.90;;;;;;5020151;28;20565;-64
2023/08/03 02:23:12;;;;;;;2.73;1.60;;;17.60;99.90;;;;;;5015070;28;20227;-64
2023/08/03 02:25:37;;;;;;;3.60;1.37;;;17.60;99.90;;;;;;5021393;28;20192;-65
2023/08/03 02:28:03;;;;;;;1.73;1.57;;;17.60;99.90;;;;;;5021232;28;20204;-64
2023/08/03 02:30:30;;;;;;;6.50;2.63;;;17.60;99.90;;;;;;5016911;28;20633;-64
2023/08/03 02:32:55;;;;;;;2.07;1.50;;;17.70;99.90;;;;;;5019701;28;20280;-62
2023/08/03 02:35:21;;;;;;;2.87;1.40;;;17.70;99.90;;;;;;5008474;28;20200;-63
2023/08/03 02:37:46;;;;;;;2.10;1.50;;;17.80;99.90;;;;;;5008932;28;20219;-64
2023/08/03 02:40:12;;;;;;;1.77;1.67;;;17.70;99.90;;;;;;5009331;28;20565;-64
2023/08/03 02:42:37;;;;;;;3.67;2.00;;;17.70;99.90;;;;;;5015885;28;20208;-64
2023/08/03 02:45:03;;;;;;;2.10;1.63;;;17.80;99.90;;;;;;5004985;28;20199;-65
2023/08/03 02:47:29;;;;;;;3.60;1.60;;;17.80;99.90;;;;;;5003415;28;20215;-65
2023/08/03 02:49:54;;;;;;;3.70;1.73;;;17.70;99.90;;;;;;5013732;28;20199;-63
2023/08/03 02:52:20;;;;;;;4.27;2.03;;;17.70;99.90;;;;;;5007751;28;20220;-62
2023/08/03 02:54:45;;;;;;;2.77;1.67;;;17.70;99.90;;;;;;5013294;28;20176;-62
2023/08/03 02:57:11;;;;;;;1.77;1.67;;;17.70;99.90;;;;;;5015596;28;20204;-66
2023/08/03 02:59:36;;;;;;;2.27;1.73;;;17.70;99.90;;;;;;5023699;28;20258;-63
2023/08/03 03:02:02;;;;;;;3.00;1.67;;;17.70;99.90;;;;;;5013786;28;20341;-59
2023/08/03 03:04:27;;;;;;;2.67;1.47;;;17.70;99.90;;;;;;5015798;28;20222;-60
2023/08/03 03:06:52;;;;;;;1.67;1.57;;;17.70;99.90;;;;;;5013593;28;20203;-60
2023/08/03 03:09:18;;;;;;;3.60;2.40;;;17.70;99.90;;;;;;5011303;28;20211;-59
2023/08/03 03:11:43;;;;;;;2.10;2.00;;;17.60;99.90;;;;;;5017462;28;20709;-60
2023/08/03 03:14:09;;;;;;;3.70;1.97;;;17.70;99.90;;;;;;5010867;28;20188;-59
2023/08/03 03:16:34;;;;;;;4.10;1.60;;;17.70;99.90;;;;;;5018810;28;20226;-63
2023/08/03 03:19:00;;;;;;;2.47;1.90;;;17.60;99.90;;;;;;5022930;28;20203;-63
2023/08/03 03:21:25;;;;;;;3.30;1.60;;;17.70;99.90;;;;;;5013797;28;20203;-63
2023/08/03 03:23:51;;;;;;;2.40;1.77;;;17.70;99.90;;;;;;5011580;28;20208;-63
2023/08/03 03:26:16;;;;;;;3.00;2.00;;;17.70;99.90;;;;;;5010342;28;20203;-63
2023/08/03 03:28:42;;;;;;;3.23;1.77;;;17.70;99.90;;;;;;4885234;22;20582;-60
2023/08/03 03:31:08;;;;;;;1.73;1.63;;;17.70;99.90;;;;;;5041441;28;20198;-60
2023/08/03 03:33:33;;;;;;;3.43;1.60;;;17.70;99.90;;;;;;5031893;28;20234;-60
2023/08/03 03:35:59;;;;;;;1.90;1.80;;;17.70;99.90;;;;;;5042970;28;20199;-60
2023/08/03 03:38:24;;;;;;;1.83;1.73;;;17.80;99.90;;;;;;5040861;28;20552;-59
2023/08/03 03:40:49;;;;;;;1.90;1.63;;;17.70;99.90;;;;;;5042658;28;20264;-59
2023/08/03 03:43:15;;;;;;;2.43;1.53;;;17.80;99.90;;;;;;5040539;28;20210;-60
2023/08/03 03:45:40;;;;;;;2.60;1.83;;;17.80;99.90;;;;;;5038559;28;20775;-60
2023/08/03 03:48:06;;;;;;;3.40;2.40;;;17.70;99.90;;;;;;5040459;28;20661;-60
2023/08/03 03:50:31;;;;;;;3.67;1.50;;;17.70;99.90;;;;;;5042673;28;20193;-60
2023/08/03 03:52:58;;;;;;;6.50;2.00;;;17.80;99.90;;;;;;5040777;28;20245;-60
2023/08/03 03:55:23;;;;;;;6.23;1.90;;;17.70;99.90;;;;;;5043003;28;20210;-60
2023/08/03 03:57:49;;;;;;;3.23;1.63;;;17.70;99.90;;;;;;5020590;28;20635;-60
2023/08/03 04:00:14;;;;;;;6.17;2.50;;;17.70;99.90;;;;;;5033750;28;20197;-61
2023/08/03 04:02:40;;;;;;;3.63;1.63;;;17.70;99.90;;;;;;5039888;28;20211;-60
2023/08/03 04:05:05;;;;;;;4.53;1.50;;;17.70;99.90;;;;;;5042554;28;20474;-60
2023/08/03 04:07:31;;;;;;;5.53;2.00;;;17.70;99.90;;;;;;5037246;28;20604;-61
2023/08/03 04:09:56;;;;;;;5.23;2.43;;;17.70;99.90;;;;;;5029481;28;20193;-60
2023/08/03 04:12:22;;;;;;;3.83;1.73;;;17.80;99.90;;;;;;5036077;28;20219;-63
2023/08/03 04:14:47;;;;;;;2.60;1.60;;;17.80;99.90;;;;;;5042587;28;20174;-64
2023/08/03 04:17:13;;;;;;;4.23;1.97;;;17.90;99.90;;;;;;5041992;28;20544;-63
2023/08/03 04:19:38;;;;;;;3.70;1.60;;;17.90;99.90;;;;;;5040065;28;20202;-63
2023/08/03 04:22:04;;;;;;;2.97;1.63;;;17.90;99.90;;;;;;5040249;28;20949;-62
2023/08/03 04:24:30;;;;;;;2.70;1.90;;;17.90;99.90;;;;;;5040289;28;20291;-63
2023/08/03 04:26:56;;;;;;;5.73;2.30;;;17.90;99.90;;;;;;5040474;28;20191;-61
2023/08/03 04:29:21;;;;;;;2.27;1.60;;;18.00;99.90;;;;;;5040326;28;20309;-63
2023/08/03 04:31:47;;;;;;;2.93;1.77;;;18.00;99.90;;;;;;5042084;28;20206;-63
2023/08/03 04:34:12;;;;;;;6.57;1.77;;;18.00;99.90;;;;;;5040043;28;20210;-64
2023/08/03 04:36:38;;;;;;;4.03;1.83;;;18.00;99.90;;;;;;5041817;28;20195;-64
2023/08/03 04:39:03;;;;;;;5.10;1.93;;;18.00;99.90;;;;;;5030853;28;20239;-64
2023/08/03 04:41:29;;;;;;;2.70;2.17;;;18.10;99.90;;;;;;5031097;28;20206;-65
2023/08/03 04:43:55;;;;;;;5.00;1.63;;;18.10;99.90;;;;;;5031322;28;20756;-66
2023/08/03 04:46:20;;;;;;;5.20;2.00;;;18.00;99.90;;;;;;5032991;28;20889;-62
2023/08/03 04:48:46;;;;;;;6.20;1.87;;;18.00;99.90;;;;;;5028282;28;20207;-59
2023/08/03 04:51:11;;;;;;;2.67;1.80;;;18.00;99.90;;;;;;5032251;28;20209;-59
2023/08/03 04:53:37;;;;;;;5.77;1.90;;;18.10;99.90;;;;;;5023665;28;20418;-59
2023/08/03 04:56:03;;;;;;;5.47;1.90;;;18.20;99.90;;;;;;5029666;28;20205;-61
2023/08/03 04:58:28;;;;;;;8.27;2.73;;;18.20;99.90;;;;;;5039354;28;20207;-62
2023/08/03 05:00:54;;;;;;;6.87;2.43;;;18.20;99.90;;;;;;5041166;28;20293;-62
2023/08/03 05:03:19;;;;;;;4.13;1.70;;;18.20;99.90;;;;;;5037769;28;20695;-63
2023/08/03 05:05:45;;;;;;;3.57;1.73;;;18.30;99.90;;;;;;5041628;28;20194;-63
2023/08/03 05:08:10;;;;;;;5.17;2.40;;;18.30;99.90;;;;;;5039415;28;20241;-62
2023/08/03 05:10:36;;;;;;;7.63;1.70;;;18.40;99.90;;;;;;5041749;28;20210;-64
2023/08/03 05:13:01;;;;;;;2.70;1.47;;;18.40;99.90;;;;;;5039507;28;20219;-63
2023/08/03 05:15:27;;;;;;;7.13;2.60;;;18.30;99.90;;;;;;5041801;28;20191;-63
2023/08/03 05:17:52;;;;;;;4.83;2.23;;;18.40;99.90;;;;;;5033615;28;20229;-64
2023/08/03 05:20:18;;;;;;;3.40;1.90;;;18.30;99.90;;;;;;5041548;28;20592;-64
2023/08/03 05:22:43;;;;;;;5.27;2.33;;;18.40;99.90;;;;;;5036110;28;20211;-63
2023/08/03 05:25:09;;;;;;;4.37;2.37;;;18.50;99.90;;;;;;5038266;28;20191;-61
2023/08/03 05:27:35;;;;;;;2.03;1.80;;;18.60;99.90;;;;;;5042173;28;20199;-61
2023/08/03 05:30:00;;;;;;;2.53;1.70;;;18.50;99.90;;;;;;5044738;28;20226;-61
2023/08/03 05:32:26;;;;;;;6.47;1.57;;;18.60;99.90;;;;;;5042570;28;20217;-61
2023/08/03 05:34:51;;;;;;;4.70;1.63;;;18.70;99.90;;;;;;5045082;28;20240;-62
2023/08/03 05:37:17;;;;;;;3.93;1.63;;;18.70;99.90;;;;;;5044783;28;20187;-61
2023/08/03 05:39:42;;;;;;;4.13;1.97;;;18.90;99.90;;;;;;5042709;28;20199;-65
2023/08/03 05:42:12;;;;;;;5.43;1.80;;;18.80;99.90;;;;;;5044236;28;20966;-60
2023/08/03 05:44:38;;;;;;;3.57;1.77;;;18.90;99.90;;;;;;5037158;28;20198;-62
2023/08/03 05:47:08;;;;;;;7.13;1.87;;;19.00;99.90;;;;;;5035088;28;20204;-59
2023/08/03 05:49:34;;;;;;;7.40;1.67;;;19.10;99.90;;;;;;5042031;28;20329;-61
2023/08/03 05:51:59;;;;;;;8.67;1.83;;;18.90;99.90;;;;;;5034411;28;20678;-61
2023/08/03 05:54:25;;;;;;;5.30;2.33;;;19.00;99.90;;;;;;5035754;28;20235;-66
2023/08/03 05:56:50;;;;;;;4.37;1.83;;;19.00;99.90;;;;;;5026733;28;20234;-61
2023/08/03 05:59:21;;;;;;;2.80;1.40;;;19.10;99.90;;;;;;5042399;28;20205;-61
2023/08/03 06:01:48;;;;;;;5.77;1.93;;;19.20;99.90;;;;;;5044793;28;20202;-62
2023/08/03 06:04:16;;;;;;;4.83;1.87;;;19.30;99.90;;;;;;5042538;28;20202;-59
2023/08/03 06:06:42;;;;;;;4.17;1.87;;;19.30;99.90;;;;;;5043866;28;20193;-60
2023/08/03 06:09:11;;;;;;;3.00;1.60;;;19.30;99.90;;;;;;5042185;28;20442;-62
2023/08/03 06:11:37;;;;;;;8.57;1.67;;;19.40;99.90;;;;;;5044534;28;20215;-63
2023/08/03 06:14:03;;;;;;;3.50;1.97;;;19.40;99.90;;;;;;5042179;28;20215;-63
2023/08/03 06:16:29;;;;;;;8.70;1.53;;;19.50;99.90;;;;;;5037394;28;20195;-63
2023/08/03 06:18:58;;;;;;;7.93;1.60;;;19.60;99.90;;;;;;5042409;28;20861;-62
2023/08/03 06:21:25;;;;;;;7.10;2.10;;;19.70;99.90;;;;;;5038483;28;20809;-65
2023/08/03 06:23:53;;;;;;;5.20;1.63;;;19.70;99.90;;;;;;5042023;28;20226;-61
2023/08/03 06:26:19;;;;;;;6.17;1.47;;;19.80;99.90;;;;;;5039269;28;20191;-61
2023/08/03 06:28:46;;;;;;;4.20;2.03;;;19.80;99.90;;;;;;5034124;28;20915;-66
2023/08/03 06:31:17;;;;;;;5.10;1.13;;;19.80;99.90;;;;;;5037717;28;20241;-62
2023/08/03 06:33:44;;;;;;;3.40;1.50;;;19.90;99.90;;;;;;5042211;28;20298;-64
2023/08/03 06:36:13;;;;;;;5.20;1.37;;;20.00;99.90;;;;;;5043610;28;20339;-68
2023/08/03 06:38:38;;;;;;;2.07;1.37;;;20.10;99.90;;;;;;5040889;28;20245;-66
2023/08/03 06:41:04;;;;;;;9.50;2.03;;;20.10;99.90;;;;;;5039505;28;20301;-69
2023/08/03 06:43:30;;;;;;;3.67;1.73;;;20.30;99.90;;;;;;5037891;28;20205;-69
2023/08/03 06:45:56;;;;;;;2.40;1.17;;;20.40;99.90;;;;;;5032740;28;20198;-71
2023/08/03 06:48:22;;;;;;;6.20;1.43;;;20.50;99.90;;;;;;5035792;28;20216;-74
2023/08/03 06:50:48;;;;;;;3.73;1.33;;;20.50;99.90;;;;;;5035214;28;20284;-59
2023/08/03 06:53:14;;;;;;;4.03;1.50;;;20.60;99.90;;;;;;5036167;28;20315;-63
2023/08/03 06:55:39;;;;;;;4.07;1.40;;;20.50;99.90;;;;;;5041030;28;20540;-69
2023/08/03 06:58:05;;;;;;;3.53;1.20;;;20.50;99.90;;;;;;5039822;28;20211;-68
2023/08/03 07:00:30;;;;;;;2.33;1.30;;;20.60;99.90;;;;;;5039473;28;20824;-60
2023/08/03 07:02:56;;;;;;;2.93;1.00;;;20.60;99.90;;;;;;5038490;28;20201;-59
2023/08/03 07:05:22;;;;;;;4.77;1.60;;;20.70;99.90;;;;;;5042956;28;21028;-61
2023/08/03 07:07:47;;;;;;;5.70;1.40;;;20.70;99.90;;;;;;5033060;28;20562;-65
2023/08/03 07:10:13;;;;;;;3.00;1.40;;;20.60;99.90;;;;;;5033116;28;20276;-66
2023/08/03 07:12:39;;;;;;;2.73;1.47;;;20.60;99.90;;;;;;5027922;28;20346;-68
2023/08/03 07:15:05;;;;;;;5.60;1.73;;;20.60;99.90;;;;;;5028880;28;20185;-69
2023/08/03 07:17:31;;;;;;;2.27;1.10;;;20.70;99.90;;;;;;5038284;28;20219;-70
2023/08/03 07:19:57;;;;;;;3.03;1.17;;;20.70;99.90;;;;;;5034666;28;20222;-63
2023/08/03 07:22:24;;;;;;;6.37;1.50;;;20.70;99.90;;;;;;5031744;28;20278;-62
2023/08/03 07:24:50;;;;;;;4.37;1.60;;;20.70;99.90;;;;;;5035355;28;20211;-73
2023/08/03 07:27:16;;;;;;;7.07;1.87;;;20.70;99.90;;;;;;5038132;28;20201;-61
2023/08/03 07:29:42;;;;;;;2.57;1.30;;;20.60;99.90;;;;;;5036482;28;20322;-61
2023/08/03 07:32:09;;;;;;;4.27;2.17;;;20.60;99.90;;;;;;5033735;28;20239;-61
2023/08/03 07:34:35;;;;;;;3.60;0.97;;;20.50;99.90;;;;;;5033143;28;20191;-70
2023/08/03 07:37:01;;;;;;;2.33;0.90;;;20.60;99.90;;;;;;5036881;28;20650;-73
2023/08/03 07:39:27;;;;;;;2.50;1.10;;;20.60;99.90;;;;;;5035378;28;20200;-68
2023/08/03 07:41:54;;;;;;;0.83;0.63;;;20.60;99.90;;;;;;5033295;28;20284;-68
2023/08/03 07:44:20;;;;;;;5.17;1.27;;;20.70;99.90;;;;;;5027692;28;20201;-68
2023/08/03 07:46:46;;;;;;;6.73;1.23;;;20.80;99.90;;;;;;4907537;22;20255;-67
2023/08/03 07:49:12;;;;;;;4.60;1.40;;;20.80;99.90;;;;;;5012371;28;20795;-67
2023/08/03 07:51:38;;;;;;;6.03;0.83;;;20.80;99.90;;;;;;5021150;28;20294;-68
2023/08/03 07:54:03;;;;;;;3.10;1.33;;;20.80;99.90;;;;;;5016570;28;20217;-68
2023/08/03 07:56:29;;;;;;;1.63;0.90;;;20.90;99.90;;;;;;5022368;28;20191;-68
2023/08/03 07:58:55;;;;;;;3.00;1.43;;;20.90;99.90;;;;;;5020037;28;20193;-68
2023/08/03 08:01:20;;;;;;;2.57;1.10;;;21.10;99.90;;;;;;5020113;28;20634;-71
2023/08/03 08:03:46;;;;;;;1.83;1.23;;;21.20;99.90;;;;;;5021438;28;20750;-65
2023/08/03 08:06:17;;;;;;;2.33;1.10;;;21.20;99.90;;;;;;5020020;28;20205;-73
2023/08/03 08:08:43;;;;;;;2.90;1.10;;;21.40;99.90;;;;;;5010938;28;20225;-63
2023/08/03 08:11:11;;;;;;;1.67;0.97;;;21.50;99.90;;;;;;5019806;28;20209;-60
2023/08/03 08:13:36;;;;;;;3.07;0.90;;;21.60;99.90;;;;;;5021441;28;20236;-61
2023/08/03 08:16:04;;;;;;;3.67;1.00;;;21.70;99.90;;;;;;5016588;28;20986;-62
2023/08/03 08:18:31;;;;;;;2.73;0.63;;;21.70;99.90;;;;;;5020200;28;20210;-61
2023/08/03 08:20:57;;;;;;;0.87;0.73;;;21.70;99.90;;;;;;5014261;28;20208;-62
2023/08/03 08:23:23;;;;;;;2.57;0.73;;;21.60;99.90;;;;;;5012095;28;20190;-63
2023/08/03 08:25:48;;;;;;;2.43;0.67;;;21.60;99.90;;;;;;5010709;28;20698;-61
2023/08/03 08:28:14;;;;;;;2.00;0.77;;;21.60;99.90;;;;;;5011300;28;20364;-63
2023/08/03 08:30:39;;;;;;;2.73;0.77;;;21.60;99.90;;;;;;5013434;28;20800;-62
2023/08/03 08:33:05;;;;;;;1.23;0.87;;;21.60;99.90;;;;;;5013073;28;20481;-66
2023/08/03 08:35:31;;;;;;;4.37;0.90;;;21.50;99.90;;;;;;5016218;28;20302;-73
2023/08/03 08:37:59;;;;;;;1.10;0.90;;;21.50;99.90;;;;;;5012731;28;20190;-69
2023/08/03 08:40:27;;;;;;;1.57;0.70;;;21.40;99.90;;;;;;5011926;28;20198;-72
2023/08/03 08:42:55;;;;;;;1.57;0.50;;;21.50;99.90;;;;;;5013060;28;20197;-69
2023/08/03 08:45:20;;;;;;;1.93;0.70;;;21.50;99.90;;;;;;5006696;28;20234;-68
2023/08/03 08:47:46;;;;;;;0.73;0.70;;;21.50;99.90;;;;;;5011247;28;20931;-67
2023/08/03 08:50:12;;;;;;;1.60;0.40;;;21.60;99.90;;;;;;5011675;28;20204;-69
2023/08/03 08:52:43;;;;;;;1.60;0.70;;;21.80;99.90;;;;;;5018638;28;20730;-74
2023/08/03 08:55:17;;;;;;;1.83;0.70;;;21.90;99.90;;;;;;5016471;28;20211;-67
2023/08/03 08:57:43;;;;;;;0.83;0.50;;;22.00;99.90;;;;;;5013461;28;20288;-70
2023/08/03 09:00:09;;;;;;;1.83;0.57;;;22.00;99.90;;;;;;5013676;28;20309;-62
2023/08/03 09:02:35;;;;;;;0.80;0.40;;;22.00;99.90;;;;;;5017925;28;20187;-72
2023/08/03 09:05:12;;;;;;;1.90;0.70;;;22.10;99.90;;;;;;5014153;28;20207;-71
2023/08/03 09:07:38;;;;;;;0.53;0.30;;;22.20;99.90;;;;;;5018481;28;20889;-61
2023/08/03 09:10:04;;;;;;;2.83;0.50;;;22.30;99.90;;;;;;5020305;28;20221;-61
2023/08/03 09:12:30;;;;;;;0.40;0.40;;;22.30;99.90;;;;;;5014108;28;20230;-67
2023/08/03 09:14:57;;;;;;;0.93;0.30;;;22.20;99.90;;;;;;5017180;28;20210;-68
2023/08/03 09:17:22;;;;;;;2.07;0.70;;;22.20;99.90;;;;;;5022526;28;20198;-70
2023/08/03 09:19:48;;;;;;;0.67;0.40;;;22.20;99.90;;;;;;5016338;28;20645;-70
2023/08/03 09:22:15;;;;;;;0.63;0.53;;;22.20;99.90;;;;;;5015509;28;20231;-61
2023/08/03 09:24:41;;;;;;;1.13;0.60;;;22.30;99.90;;;;;;5016786;28;20838;-60
2023/08/03 09:27:06;;;;;;;2.37;0.40;;;22.40;99.90;;;;;;5014639;28;20182;-61
2023/08/03 09:29:33;;;;;;;1.13;0.50;;;22.40;99.90;;;;;;5017172;28;20230;-60
2023/08/03 09:32:04;;;;;;;0.93;0.50;;;22.50;99.90;;;;;;5016695;28;20673;-60
2023/08/03 09:34:40;;;;;;;0.50;0.40;;;22.40;99.90;;;;;;5014696;28;20748;-61
2023/08/03 09:37:09;;;;;;;0.60;0.60;;;22.40;99.90;;;;;;5023188;28;20683;-72
2023/08/03 09:39:38;;;;;;;1.03;0.70;;;22.40;99.90;;;;;;5016326;28;20235;-70
2023/08/03 09:42:07;;;;;;;2.20;0.50;;;22.40;99.90;;;;;;5020818;28;20179;-69
2023/08/03 09:44:33;;;;;;;1.50;0.60;;;22.30;99.90;;;;;;5011954;28;20883;-73
2023/08/03 09:47:03;;;;;;;4.90;0.87;;;22.20;99.90;;;;;;5018089;28;20218;-69
2023/08/03 09:49:29;;;;;;;0.50;0.50;;;21.90;99.90;;;;;;5015769;28;20593;-70
2023/08/03 09:51:59;;;;;;;1.40;0.70;;;21.70;99.90;;;;;;5015496;28;20306;-65
2023/08/03 09:54:40;;;;;;;0.60;0.60;;;21.50;99.90;;;;;;5016956;28;20192;-60
2023/08/03 09:57:13;;;;;;;0.50;0.47;;;21.30;99.90;;;;;;5014053;28;20184;-71
2023/08/03 09:59:42;;;;;;;1.60;0.50;;;21.30;99.90;;;;;;5014386;28;20193;-60
2023/08/03 10:02:09;;;;;;;0.67;0.40;;;21.40;99.90;;;;;;5015631;28;20194;-67
2023/08/03 10:04:41;;;;;;;2.60;0.47;;;21.70;99.90;;;;;;5013652;28;20291;-66
2023/08/03 10:07:09;;;;;;;0.40;0.40;;;21.90;99.90;;;;;;5017918;28;20277;-67
2023/08/03 10:09:41;;;;;;;1.43;0.60;;;22.10;99.90;;;;;;5015542;28;20199;-63
2023/08/03 10:12:12;;;;;;;0.60;0.60;;;22.20;99.90;;;;;;5014873;28;20806;-75
2023/08/03 10:14:41;;;;;;;1.23;0.60;;;22.30;99.90;;;;;;5013672;28;20206;-62
2023/08/03 10:17:08;;;;;;;1.00;0.60;;;22.40;99.90;;;;;;5018505;28;20282;-72
2023/08/03 10:19:36;;;;;;;1.07;0.77;;;22.50;99.90;;;;;;5021294;28;20237;-67
2023/08/03 10:22:02;;;;;;;0.40;0.40;;;22.60;99.90;;;;;;5018119;28;20278;-60
2023/08/03 10:24:28;;;;;;;0.77;0.63;;;22.60;99.90;;;;;;5013681;28;20315;-65
2023/08/03 10:27:16;;;;;;;0.40;0.40;;;22.60;99.90;;;;;;5013474;28;20180;-65
2023/08/03 10:29:51;;;;;;;0.90;0.90;;;22.60;99.90;;;;;;5014110;28;20293;-68
2023/08/03 10:32:22;;;;;;;2.70;0.53;;;22.70;99.90;;;;;;5019774;28;20218;-65
2023/08/03 10:34:48;;;;;;;2.93;0.63;;;22.60;99.90;;;;;;5016691;28;20213;-65
2023/08/03 10:37:14;;;;;;;0.70;0.70;;;22.60;99.90;;;;;;5018237;28;20220;-64
2023/08/03 10:39:48;;;;;;;1.53;0.67;;;22.60;99.90;;;;;;5015338;28;20669;-64
2023/08/03 10:42:19;;;;;;;1.53;0.47;;;22.40;99.90;;;;;;5019660;28;20257;-69
2023/08/03 10:44:44;;;;;;;1.37;0.50;;;22.40;99.90;;;;;;5012552;28;20195;-69
2023/08/03 10:47:29;;;;;;;0.30;0.30;;;22.40;99.90;;;;;;5012276;28;20250;-67
2023/08/03 10:49:58;;;;;;;0.80;0.77;;;22.50;99.90;;;;;;5007516;28;20226;-69
2023/08/03 10:52:28;;;;;;;1.23;0.80;;;22.70;99.90;;;;;;5021544;28;20219;-69
2023/08/03 10:54:54;;;;;;;1.30;0.30;;;22.60;99.90;;;;;;5008936;28;20898;-70
2023/08/03 10:57:29;;;;;;;1.80;0.47;;;22.60;99.90;;;;;;5023235;28;20313;-70
2023/08/03 11:00:01;;;;;;;1.13;0.50;;;22.50;99.90;;;;;;5046673;22;20771;-68
2023/08/03 11:02:33;;;;;;;1.53;0.40;;;22.30;99.90;;;;;;5011240;28;20617;-69
2023/08/03 11:05:00;;;;;;;0.60;0.40;;;22.20;99.90;;;;;;5020970;28;20908;-68
2023/08/03 11:07:37;;;;;;;1.33;0.53;;;22.20;99.90;;;;;;5020677;28;20206;-68
2023/08/03 11:10:05;;;;;;;1.00;0.70;;;22.30;99.90;;;;;;5011071;28;20195;-69
2023/08/03 11:12:31;;;;;;;0.40;0.40;;;22.40;99.90;;;;;;5021012;28;20277;-67
2023/08/03 11:14:57;;;;;;;1.13;0.60;;;22.90;99.90;;;;;;5021553;28;20203;-68
2023/08/03 11:17:25;;;;;;;2.37;0.90;;;23.00;99.90;;;;;;5010021;28;20218;-68
2023/08/03 11:19:52;;;;;;;0.60;0.60;;;23.20;99.90;;;;;;5020575;28;20200;-68
2023/08/03 11:22:22;;;;;;;0.57;0.53;;;23.20;99.90;;;;;;5005412;28;20408;-68
2023/08/03 11:24:55;;;;;;;1.43;0.50;;;23.10;99.90;;;;;;5011577;28;20187;-68
2023/08/03 11:27:21;;;;;;;1.33;0.60;;;23.20;99.80;;;;;;5010473;28;20620;-68
2023/08/03 11:29:47;;;;;;;1.47;1.00;;;23.40;99.60;;;;;;5022314;28;20196;-68
2023/08/03 11:32:22;;;;;;;0.50;0.50;;;23.50;99.90;;;;;;5000335;28;20698;-69
2023/08/03 11:34:47;;;;;;;2.17;0.77;;;23.60;99.90;;;;;;5015102;28;20175;-68
2023/08/03 11:37:13;;;;;;;0.50;0.47;;;23.30;99.90;;;;;;5013435;28;20208;-68
2023/08/03 11:39:38;;;;;;;1.70;0.70;;;23.10;99.90;;;;;;5018517;28;20191;-69
2023/08/03 11:42:06;;;;;;;0.50;0.50;;;23.10;99.90;;;;;;5010467;28;20249;-68
2023/08/03 11:44:38;;;;;;;2.40;0.53;;;23.30;99.90;;;;;;5008414;28;20187;-69
2023/08/03 11:47:07;;;;;;;0.57;0.57;;;23.30;99.90;;;;;;5008535;28;20206;-69
2023/08/03 11:49:34;;;;;;;0.73;0.73;;;23.50;99.90;;;;;;5012017;28;20175;-69
2023/08/03 11:52:00;;;;;;;0.77;0.60;;;23.40;99.90;;;;;;5015418;28;20230;-69
2023/08/03 11:54:29;;;;;;;1.90;1.00;;;23.60;99.90;;;;;;5020942;28;20285;-69
2023/08/03 11:58:07;;;;;;;0.47;0.47;;;23.70;99.90;;;;;;5018453;28;20201;-68
2023/08/03 11:59:43;;;;;;;1.23;0.80;;;23.50;99.90;;;;;;5009913;28;20625;-68
2023/08/03 12:02:08;;;;;;;1.47;1.23;;;23.50;99.90;;;;;;5006852;28;20253;-68
2023/08/03 12:04:34;;;;;;;1.60;0.50;;;23.50;99.90;;;;;;5022524;28;20402;-69
2023/08/03 12:07:01;;;;;;;0.83;0.80;;;23.40;99.90;;;;;;5006714;28;20200;-68
2023/08/03 12:12:02;;;;;;;1.53;0.63;;;23.20;99.90;;;;;;4997585;28;20224;-69
2023/08/03 12:14:28;;;;;;;1.27;0.70;;;23.10;99.90;;;;;;5002013;28;20824;-67
2023/08/03 12:16:53;;;;;;;1.43;0.80;;;23.00;99.90;;;;;;4994593;28;20231;-68
2023/08/03 12:19:19;;;;;;;2.57;0.63;;;22.90;99.90;;;;;;4995940;28;20212;-65
2023/08/03 12:21:45;;;;;;;2.17;0.87;;;22.80;99.90;;;;;;4995906;28;20203;-60
2023/08/03 12:24:12;;;;;;;0.97;0.77;;;22.90;99.90;;;;;;4998671;28;20180;-60
2023/08/03 12:26:37;;;;;;;0.57;0.50;;;22.90;99.90;;;;;;4983833;28;20203;-61
2023/08/03 12:29:04;;;;;;;2.93;0.80;;;22.80;99.90;;;;;;4999995;28;20193;-73
2023/08/03 12:31:31;;;;;;;1.93;0.53;;;23.00;99.90;;;;;;4975763;28;20196;-63
2023/08/03 12:33:56;;;;;;;1.13;0.50;;;23.00;99.90;;;;;;4997093;28;20913;-62
2023/08/03 12:36:22;;;;;;;0.70;0.70;;;23.00;99.90;;;;;;4995064;28;20194;-72
2023/08/03 12:38:48;;;;;;;0.70;0.50;;;23.10;99.90;;;;;;4981041;28;20177;-60
2023/08/03 12:41:14;;;;;;;1.63;0.50;;;23.40;99.90;;;;;;4974567;28;20729;-60
2023/08/03 12:43:40;;;;;;;0.53;0.53;;;23.40;99.90;;;;;;4989168;28;20677;-64
2023/08/03 12:46:05;;;;;;;1.17;0.70;;;23.20;99.90;;;;;;4997772;28;20202;-63
2023/08/03 12:48:30;;;;;;;0.80;0.53;;;23.00;99.90;;;;;;4995496;28;20231;-66